sensor_id;sensor_type;location;lat;lon;timestamp;P1;durP1;ratioP1;P2;durP2;ratioP2
55150;SDS011;41041;43.162;20.538;2023-08-30T00:00:54;5.65;;;2.00;;
55150;SDS011;41041;43.162;20.538;2023-08-30T00:03:20;7.07;;;2.10;;
55150;SDS011;41041;43.162;20.538;2023-08-30T00:05:46;6.07;;;1.90;;
55150;SDS011;41041;43.162;20.538;2023-08-30T00:08:11;9.73;;;2.08;;
55150;SDS011;41041;43.162;20.538;2023-08-30T00:10:38;8.45;;;2.30;;
55150;SDS011;41041;43.162;20.538;2023-08-30T00:13:07;4.82;;;2.30;;
55150;SDS011;41041;43.162;20.538;2023-08-30T00:15:38;5.80;;;2.20;;
55150;SDS011;41041;43.162;20.538;2023-08-30T00:20:30;6.70;;;2.25;;
55150;SDS011;41041;43.162;20.538;2023-08-30T00:22:57;8.93;;;2.08;;
55150;SDS011;41041;43.162;20.538;2023-08-30T00:25:23;7.20;;;2.75;;
55150;SDS011;41041;43.162;20.538;2023-08-30T00:27:48;7.88;;;2.58;;
55150;SDS011;41041;43.162;20.538;2023-08-30T00:30:14;4.55;;;2.13;;
55150;SDS011;41041;43.162;20.538;2023-08-30T00:32:40;7.47;;;2.60;;
55150;SDS011;41041;43.162;20.538;2023-08-30T00:35:06;8.35;;;2.40;;
55150;SDS011;41041;43.162;20.538;2023-08-30T00:37:32;9.20;;;2.38;;
55150;SDS011;41041;43.162;20.538;2023-08-30T00:39:59;5.55;;;2.53;;
55150;SDS011;41041;43.162;20.538;2023-08-30T00:42:27;5.70;;;2.30;;
55150;SDS011;41041;43.162;20.538;2023-08-30T00:44:53;5.70;;;2.55;;
55150;SDS011;41041;43.162;20.538;2023-08-30T00:47:19;6.63;;;2.60;;
55150;SDS011;41041;43.162;20.538;2023-08-30T00:49:45;6.63;;;2.50;;
55150;SDS011;41041;43.162;20.538;2023-08-30T00:52:11;6.70;;;2.10;;
55150;SDS011;41041;43.162;20.538;2023-08-30T00:54:37;9.13;;;2.42;;
55150;SDS011;41041;43.162;20.538;2023-08-30T00:57:04;8.88;;;2.42;;
55150;SDS011;41041;43.162;20.538;2023-08-30T00:59:32;6.10;;;2.40;;
55150;SDS011;41041;43.162;20.538;2023-08-30T01:01:58;4.97;;;2.03;;
55150;SDS011;41041;43.162;20.538;2023-08-30T01:04:26;5.35;;;2.00;;
55150;SDS011;41041;43.162;20.538;2023-08-30T01:06:53;5.97;;;1.88;;
55150;SDS011;41041;43.162;20.538;2023-08-30T01:09:19;7.80;;;2.13;;
55150;SDS011;41041;43.162;20.538;2023-08-30T01:11:50;4.20;;;2.20;;
55150;SDS011;41041;43.162;20.538;2023-08-30T01:14:27;7.75;;;2.10;;
55150;SDS011;41041;43.162;20.538;2023-08-30T01:17:16;4.80;;;2.17;;
55150;SDS011;41041;43.162;20.538;2023-08-30T01:19:56;8.57;;;1.70;;
55150;SDS011;41041;43.162;20.538;2023-08-30T01:23:59;4.88;;;1.75;;
55150;SDS011;41041;43.162;20.538;2023-08-30T01:28:40;3.80;;;1.92;;
55150;SDS011;41041;43.162;20.538;2023-08-30T01:31:07;7.38;;;1.77;;
55150;SDS011;41041;43.162;20.538;2023-08-30T01:33:36;5.50;;;1.75;;
55150;SDS011;41041;43.162;20.538;2023-08-30T01:36:03;7.55;;;1.80;;
55150;SDS011;41041;43.162;20.538;2023-08-30T01:38:29;6.50;;;2.22;;
55150;SDS011;41041;43.162;20.538;2023-08-30T01:40:58;5.65;;;1.80;;
55150;SDS011;41041;43.162;20.538;2023-08-30T01:43:28;6.47;;;1.80;;
55150;SDS011;41041;43.162;20.538;2023-08-30T01:45:55;5.88;;;1.80;;
55150;SDS011;41041;43.162;20.538;2023-08-30T01:48:22;6.75;;;1.80;;
55150;SDS011;41041;43.162;20.538;2023-08-30T01:50:50;8.70;;;2.00;;
55150;SDS011;41041;43.162;20.538;2023-08-30T01:53:16;3.58;;;1.60;;
55150;SDS011;41041;43.162;20.538;2023-08-30T01:55:42;4.35;;;1.55;;
55150;SDS011;41041;43.162;20.538;2023-08-30T01:58:08;4.10;;;1.70;;
55150;SDS011;41041;43.162;20.538;2023-08-30T02:00:35;4.78;;;1.60;;
55150;SDS011;41041;43.162;20.538;2023-08-30T02:03:08;5.07;;;1.60;;
55150;SDS011;41041;43.162;20.538;2023-08-30T02:05:35;4.70;;;1.33;;
55150;SDS011;41041;43.162;20.538;2023-08-30T02:08:15;4.23;;;1.80;;
55150;SDS011;41041;43.162;20.538;2023-08-30T02:10:45;6.78;;;1.85;;
55150;SDS011;41041;43.162;20.538;2023-08-30T02:13:32;5.43;;;1.48;;
55150;SDS011;41041;43.162;20.538;2023-08-30T02:16:00;4.90;;;1.33;;
55150;SDS011;41041;43.162;20.538;2023-08-30T02:18:27;3.33;;;1.33;;
55150;SDS011;41041;43.162;20.538;2023-08-30T02:20:53;5.68;;;1.45;;
55150;SDS011;41041;43.162;20.538;2023-08-30T02:23:24;4.05;;;1.50;;
55150;SDS011;41041;43.162;20.538;2023-08-30T02:25:50;3.42;;;1.58;;
55150;SDS011;41041;43.162;20.538;2023-08-30T02:28:16;3.25;;;1.40;;
55150;SDS011;41041;43.162;20.538;2023-08-30T02:30:52;6.35;;;1.80;;
55150;SDS011;41041;43.162;20.538;2023-08-30T02:33:19;5.15;;;2.20;;
55150;SDS011;41041;43.162;20.538;2023-08-30T02:35:44;4.85;;;2.20;;
55150;SDS011;41041;43.162;20.538;2023-08-30T02:38:10;7.15;;;2.30;;
55150;SDS011;41041;43.162;20.538;2023-08-30T02:40:36;5.32;;;2.30;;
55150;SDS011;41041;43.162;20.538;2023-08-30T02:43:02;4.80;;;2.30;;
55150;SDS011;41041;43.162;20.538;2023-08-30T02:45:28;7.03;;;2.25;;
55150;SDS011;41041;43.162;20.538;2023-08-30T02:47:57;5.22;;;2.33;;
55150;SDS011;41041;43.162;20.538;2023-08-30T02:50:23;4.60;;;2.00;;
55150;SDS011;41041;43.162;20.538;2023-08-30T02:52:50;6.05;;;2.33;;
55150;SDS011;41041;43.162;20.538;2023-08-30T02:55:16;6.53;;;2.25;;
55150;SDS011;41041;43.162;20.538;2023-08-30T02:57:43;4.45;;;2.40;;
55150;SDS011;41041;43.162;20.538;2023-08-30T03:00:09;3.88;;;2.20;;
55150;SDS011;41041;43.162;20.538;2023-08-30T03:02:35;4.65;;;2.30;;
55150;SDS011;41041;43.162;20.538;2023-08-30T03:05:00;5.15;;;2.10;;
55150;SDS011;41041;43.162;20.538;2023-08-30T03:07:28;7.30;;;2.60;;
55150;SDS011;41041;43.162;20.538;2023-08-30T03:09:54;5.15;;;2.15;;
55150;SDS011;41041;43.162;20.538;2023-08-30T03:12:20;4.55;;;2.22;;
55150;SDS011;41041;43.162;20.538;2023-08-30T03:17:22;5.65;;;2.58;;
55150;SDS011;41041;43.162;20.538;2023-08-30T03:19:48;5.63;;;2.10;;
55150;SDS011;41041;43.162;20.538;2023-08-30T03:22:16;7.78;;;2.33;;
55150;SDS011;41041;43.162;20.538;2023-08-30T03:24:42;6.18;;;2.58;;
55150;SDS011;41041;43.162;20.538;2023-08-30T03:27:07;7.95;;;2.28;;
55150;SDS011;41041;43.162;20.538;2023-08-30T03:29:33;6.80;;;2.70;;
55150;SDS011;41041;43.162;20.538;2023-08-30T03:31:59;10.40;;;2.67;;
55150;SDS011;41041;43.162;20.538;2023-08-30T03:34:24;10.32;;;3.28;;
55150;SDS011;41041;43.162;20.538;2023-08-30T03:36:50;8.88;;;2.97;;
55150;SDS011;41041;43.162;20.538;2023-08-30T03:39:19;6.05;;;2.50;;
55150;SDS011;41041;43.162;20.538;2023-08-30T03:41:46;4.30;;;2.33;;
55150;SDS011;41041;43.162;20.538;2023-08-30T03:44:11;8.40;;;3.00;;
55150;SDS011;41041;43.162;20.538;2023-08-30T03:46:37;6.78;;;2.28;;
55150;SDS011;41041;43.162;20.538;2023-08-30T03:49:03;5.93;;;2.08;;
55150;SDS011;41041;43.162;20.538;2023-08-30T03:51:29;9.35;;;2.30;;
55150;SDS011;41041;43.162;20.538;2023-08-30T03:53:55;7.25;;;2.47;;
55150;SDS011;41041;43.162;20.538;2023-08-30T03:56:22;5.55;;;2.15;;
55150;SDS011;41041;43.162;20.538;2023-08-30T03:58:48;4.70;;;2.38;;
55150;SDS011;41041;43.162;20.538;2023-08-30T04:01:13;6.53;;;2.40;;
55150;SDS011;41041;43.162;20.538;2023-08-30T04:03:39;8.50;;;2.55;;
55150;SDS011;41041;43.162;20.538;2023-08-30T04:06:06;5.70;;;2.35;;
55150;SDS011;41041;43.162;20.538;2023-08-30T04:08:32;6.93;;;2.50;;
55150;SDS011;41041;43.162;20.538;2023-08-30T04:10:58;7.97;;;2.50;;
55150;SDS011;41041;43.162;20.538;2023-08-30T04:13:24;8.98;;;2.63;;
55150;SDS011;41041;43.162;20.538;2023-08-30T04:15:50;4.88;;;2.40;;
55150;SDS011;41041;43.162;20.538;2023-08-30T04:18:17;8.35;;;2.20;;
55150;SDS011;41041;43.162;20.538;2023-08-30T04:20:44;6.88;;;2.20;;
55150;SDS011;41041;43.162;20.538;2023-08-30T04:23:11;7.05;;;2.30;;
55150;SDS011;41041;43.162;20.538;2023-08-30T04:25:37;18.48;;;3.20;;
55150;SDS011;41041;43.162;20.538;2023-08-30T04:28:04;7.32;;;2.70;;
55150;SDS011;41041;43.162;20.538;2023-08-30T04:30:30;6.38;;;2.65;;
55150;SDS011;41041;43.162;20.538;2023-08-30T04:32:56;5.82;;;2.20;;
55150;SDS011;41041;43.162;20.538;2023-08-30T04:35:22;5.53;;;1.98;;
55150;SDS011;41041;43.162;20.538;2023-08-30T04:37:48;5.75;;;1.88;;
55150;SDS011;41041;43.162;20.538;2023-08-30T04:40:14;8.15;;;2.00;;
55150;SDS011;41041;43.162;20.538;2023-08-30T04:42:39;6.10;;;2.78;;
55150;SDS011;41041;43.162;20.538;2023-08-30T04:45:06;6.68;;;2.13;;
55150;SDS011;41041;43.162;20.538;2023-08-30T04:47:32;11.75;;;2.63;;
55150;SDS011;41041;43.162;20.538;2023-08-30T04:49:58;10.85;;;2.60;;
55150;SDS011;41041;43.162;20.538;2023-08-30T04:52:26;6.80;;;2.92;;
55150;SDS011;41041;43.162;20.538;2023-08-30T04:54:52;6.55;;;2.40;;
55150;SDS011;41041;43.162;20.538;2023-08-30T04:57:18;5.97;;;2.40;;
55150;SDS011;41041;43.162;20.538;2023-08-30T04:59:44;8.65;;;2.83;;
55150;SDS011;41041;43.162;20.538;2023-08-30T05:02:11;6.35;;;2.70;;
55150;SDS011;41041;43.162;20.538;2023-08-30T05:04:36;7.60;;;2.70;;
55150;SDS011;41041;43.162;20.538;2023-08-30T05:07:02;7.05;;;2.67;;
55150;SDS011;41041;43.162;20.538;2023-08-30T05:09:31;5.63;;;2.75;;
55150;SDS011;41041;43.162;20.538;2023-08-30T05:11:58;8.25;;;2.60;;
55150;SDS011;41041;43.162;20.538;2023-08-30T05:14:24;5.15;;;2.42;;
55150;SDS011;41041;43.162;20.538;2023-08-30T05:16:50;7.40;;;2.55;;
55150;SDS011;41041;43.162;20.538;2023-08-30T05:19:15;10.80;;;3.10;;
55150;SDS011;41041;43.162;20.538;2023-08-30T05:21:42;11.23;;;2.90;;
55150;SDS011;41041;43.162;20.538;2023-08-30T05:24:08;10.68;;;3.40;;
55150;SDS011;41041;43.162;20.538;2023-08-30T05:26:35;8.95;;;3.55;;
55150;SDS011;41041;43.162;20.538;2023-08-30T05:29:01;7.32;;;3.40;;
55150;SDS011;41041;43.162;20.538;2023-08-30T05:31:27;10.98;;;3.40;;
55150;SDS011;41041;43.162;20.538;2023-08-30T05:33:53;12.48;;;3.65;;
55150;SDS011;41041;43.162;20.538;2023-08-30T05:36:19;12.50;;;3.40;;
55150;SDS011;41041;43.162;20.538;2023-08-30T05:38:45;11.10;;;3.70;;
55150;SDS011;41041;43.162;20.538;2023-08-30T05:41:11;10.02;;;4.40;;
55150;SDS011;41041;43.162;20.538;2023-08-30T05:43:37;8.60;;;4.97;;
55150;SDS011;41041;43.162;20.538;2023-08-30T05:46:03;9.32;;;4.18;;
55150;SDS011;41041;43.162;20.538;2023-08-30T05:48:29;8.07;;;4.10;;
55150;SDS011;41041;43.162;20.538;2023-08-30T05:50:56;7.53;;;3.70;;
55150;SDS011;41041;43.162;20.538;2023-08-30T05:53:22;8.35;;;3.13;;
55150;SDS011;41041;43.162;20.538;2023-08-30T05:55:48;7.63;;;3.30;;
55150;SDS011;41041;43.162;20.538;2023-08-30T05:58:14;12.48;;;4.13;;
55150;SDS011;41041;43.162;20.538;2023-08-30T06:00:41;7.68;;;3.83;;
55150;SDS011;41041;43.162;20.538;2023-08-30T06:03:07;11.13;;;4.32;;
55150;SDS011;41041;43.162;20.538;2023-08-30T06:05:33;8.45;;;3.78;;
55150;SDS011;41041;43.162;20.538;2023-08-30T06:07:59;8.45;;;3.97;;
55150;SDS011;41041;43.162;20.538;2023-08-30T06:10:27;7.35;;;3.60;;
55150;SDS011;41041;43.162;20.538;2023-08-30T06:12:53;7.45;;;3.85;;
55150;SDS011;41041;43.162;20.538;2023-08-30T06:15:19;7.65;;;3.70;;
55150;SDS011;41041;43.162;20.538;2023-08-30T06:17:45;8.73;;;3.58;;
55150;SDS011;41041;43.162;20.538;2023-08-30T06:20:11;12.80;;;4.20;;
55150;SDS011;41041;43.162;20.538;2023-08-30T06:25:23;10.38;;;3.42;;
55150;SDS011;41041;43.162;20.538;2023-08-30T06:27:56;7.90;;;3.15;;
55150;SDS011;41041;43.162;20.538;2023-08-30T06:33:17;13.38;;;3.65;;
55150;SDS011;41041;43.162;20.538;2023-08-30T06:35:43;8.80;;;3.28;;
55150;SDS011;41041;43.162;20.538;2023-08-30T06:38:09;10.63;;;3.85;;
55150;SDS011;41041;43.162;20.538;2023-08-30T06:40:35;8.60;;;3.28;;
55150;SDS011;41041;43.162;20.538;2023-08-30T06:43:01;14.50;;;4.05;;
55150;SDS011;41041;43.162;20.538;2023-08-30T06:45:28;12.43;;;3.25;;
55150;SDS011;41041;43.162;20.538;2023-08-30T06:47:54;8.38;;;2.88;;
55150;SDS011;41041;43.162;20.538;2023-08-30T06:50:20;14.57;;;3.47;;
55150;SDS011;41041;43.162;20.538;2023-08-30T06:52:46;8.55;;;3.47;;
55150;SDS011;41041;43.162;20.538;2023-08-30T06:55:11;10.68;;;3.42;;
55150;SDS011;41041;43.162;20.538;2023-08-30T06:57:37;9.80;;;2.80;;
55150;SDS011;41041;43.162;20.538;2023-08-30T07:00:03;10.07;;;2.90;;
55150;SDS011;41041;43.162;20.538;2023-08-30T07:02:33;8.52;;;2.90;;
55150;SDS011;41041;43.162;20.538;2023-08-30T07:05:02;9.13;;;3.05;;
55150;SDS011;41041;43.162;20.538;2023-08-30T07:07:30;6.63;;;2.88;;
55150;SDS011;41041;43.162;20.538;2023-08-30T07:09:56;9.45;;;3.00;;
55150;SDS011;41041;43.162;20.538;2023-08-30T07:12:22;15.02;;;3.10;;
55150;SDS011;41041;43.162;20.538;2023-08-30T07:14:48;8.57;;;2.78;;
55150;SDS011;41041;43.162;20.538;2023-08-30T07:17:14;10.80;;;3.15;;
55150;SDS011;41041;43.162;20.538;2023-08-30T07:19:40;12.00;;;3.20;;
55150;SDS011;41041;43.162;20.538;2023-08-30T07:22:05;10.32;;;2.90;;
55150;SDS011;41041;43.162;20.538;2023-08-30T07:24:31;9.93;;;3.03;;
55150;SDS011;41041;43.162;20.538;2023-08-30T07:26:57;13.15;;;3.10;;
55150;SDS011;41041;43.162;20.538;2023-08-30T07:29:23;8.95;;;2.65;;
55150;SDS011;41041;43.162;20.538;2023-08-30T07:31:48;7.43;;;2.70;;
55150;SDS011;41041;43.162;20.538;2023-08-30T07:34:16;5.75;;;2.33;;
55150;SDS011;41041;43.162;20.538;2023-08-30T07:36:42;8.75;;;2.38;;
55150;SDS011;41041;43.162;20.538;2023-08-30T07:39:10;5.57;;;1.90;;
55150;SDS011;41041;43.162;20.538;2023-08-30T07:41:36;11.43;;;2.17;;
55150;SDS011;41041;43.162;20.538;2023-08-30T07:44:01;8.57;;;2.58;;
55150;SDS011;41041;43.162;20.538;2023-08-30T07:49:04;6.57;;;2.15;;
55150;SDS011;41041;43.162;20.538;2023-08-30T07:51:29;6.95;;;1.98;;
55150;SDS011;41041;43.162;20.538;2023-08-30T07:56:25;3.80;;;1.33;;
55150;SDS011;41041;43.162;20.538;2023-08-30T07:58:51;4.80;;;1.63;;
55150;SDS011;41041;43.162;20.538;2023-08-30T08:01:17;5.40;;;1.40;;
55150;SDS011;41041;43.162;20.538;2023-08-30T08:03:43;4.28;;;1.50;;
55150;SDS011;41041;43.162;20.538;2023-08-30T08:06:09;5.32;;;1.65;;
55150;SDS011;41041;43.162;20.538;2023-08-30T08:08:35;6.07;;;1.67;;
55150;SDS011;41041;43.162;20.538;2023-08-30T08:13:44;9.00;;;1.70;;
55150;SDS011;41041;43.162;20.538;2023-08-30T08:16:09;4.18;;;1.73;;
55150;SDS011;41041;43.162;20.538;2023-08-30T08:18:36;3.53;;;1.67;;
55150;SDS011;41041;43.162;20.538;2023-08-30T08:21:02;6.07;;;1.70;;
55150;SDS011;41041;43.162;20.538;2023-08-30T08:23:29;6.53;;;1.65;;
55150;SDS011;41041;43.162;20.538;2023-08-30T08:25:58;5.40;;;1.60;;
55150;SDS011;41041;43.162;20.538;2023-08-30T08:28:24;4.65;;;1.58;;
55150;SDS011;41041;43.162;20.538;2023-08-30T08:30:50;6.38;;;1.60;;
55150;SDS011;41041;43.162;20.538;2023-08-30T08:33:16;3.85;;;1.50;;
55150;SDS011;41041;43.162;20.538;2023-08-30T08:35:43;3.53;;;1.70;;
55150;SDS011;41041;43.162;20.538;2023-08-30T08:38:09;5.68;;;1.60;;
55150;SDS011;41041;43.162;20.538;2023-08-30T08:40:39;4.75;;;1.75;;
55150;SDS011;41041;43.162;20.538;2023-08-30T08:43:05;4.22;;;1.70;;
55150;SDS011;41041;43.162;20.538;2023-08-30T08:45:37;4.53;;;1.90;;
55150;SDS011;41041;43.162;20.538;2023-08-30T08:48:03;5.85;;;1.60;;
55150;SDS011;41041;43.162;20.538;2023-08-30T08:50:30;7.22;;;1.77;;
55150;SDS011;41041;43.162;20.538;2023-08-30T08:53:01;5.95;;;1.50;;
55150;SDS011;41041;43.162;20.538;2023-08-30T08:55:28;5.47;;;2.90;;
55150;SDS011;41041;43.162;20.538;2023-08-30T08:57:58;5.95;;;1.85;;
55150;SDS011;41041;43.162;20.538;2023-08-30T09:00:24;5.45;;;1.77;;
55150;SDS011;41041;43.162;20.538;2023-08-30T09:02:51;3.55;;;1.60;;
55150;SDS011;41041;43.162;20.538;2023-08-30T09:05:19;3.70;;;1.60;;
55150;SDS011;41041;43.162;20.538;2023-08-30T09:07:45;4.53;;;1.92;;
55150;SDS011;41041;43.162;20.538;2023-08-30T09:10:13;4.30;;;1.58;;
55150;SDS011;41041;43.162;20.538;2023-08-30T09:12:38;6.30;;;1.63;;
55150;SDS011;41041;43.162;20.538;2023-08-30T09:15:04;5.97;;;1.65;;
55150;SDS011;41041;43.162;20.538;2023-08-30T09:17:40;4.57;;;1.48;;
55150;SDS011;41041;43.162;20.538;2023-08-30T09:20:08;5.47;;;2.25;;
55150;SDS011;41041;43.162;20.538;2023-08-30T09:22:39;7.35;;;2.40;;
55150;SDS011;41041;43.162;20.538;2023-08-30T09:25:09;4.22;;;1.80;;
55150;SDS011;41041;43.162;20.538;2023-08-30T09:27:36;5.55;;;1.90;;
55150;SDS011;41041;43.162;20.538;2023-08-30T09:30:07;5.35;;;2.50;;
55150;SDS011;41041;43.162;20.538;2023-08-30T09:32:41;4.85;;;2.22;;
55150;SDS011;41041;43.162;20.538;2023-08-30T09:35:07;7.93;;;2.10;;
55150;SDS011;41041;43.162;20.538;2023-08-30T09:37:33;3.92;;;2.17;;
55150;SDS011;41041;43.162;20.538;2023-08-30T09:39:59;4.07;;;2.20;;
55150;SDS011;41041;43.162;20.538;2023-08-30T09:45:00;7.18;;;2.80;;
55150;SDS011;41041;43.162;20.538;2023-08-30T09:47:26;7.32;;;2.63;;
55150;SDS011;41041;43.162;20.538;2023-08-30T09:49:54;7.47;;;2.60;;
55150;SDS011;41041;43.162;20.538;2023-08-30T09:52:24;5.47;;;2.38;;
55150;SDS011;41041;43.162;20.538;2023-08-30T09:54:51;8.13;;;2.63;;
55150;SDS011;41041;43.162;20.538;2023-08-30T09:57:18;5.57;;;2.05;;
55150;SDS011;41041;43.162;20.538;2023-08-30T09:59:46;5.28;;;2.28;;
55150;SDS011;41041;43.162;20.538;2023-08-30T10:02:13;5.45;;;2.13;;
55150;SDS011;41041;43.162;20.538;2023-08-30T10:04:40;4.30;;;1.95;;
55150;SDS011;41041;43.162;20.538;2023-08-30T10:07:06;5.63;;;2.00;;
55150;SDS011;41041;43.162;20.538;2023-08-30T10:09:33;5.00;;;1.83;;
55150;SDS011;41041;43.162;20.538;2023-08-30T10:11:59;6.13;;;1.85;;
55150;SDS011;41041;43.162;20.538;2023-08-30T10:14:26;3.88;;;1.70;;
55150;SDS011;41041;43.162;20.538;2023-08-30T10:16:55;4.32;;;1.70;;
55150;SDS011;41041;43.162;20.538;2023-08-30T10:19:28;5.03;;;1.80;;
55150;SDS011;41041;43.162;20.538;2023-08-30T10:22:04;6.03;;;1.50;;
55150;SDS011;41041;43.162;20.538;2023-08-30T10:27:25;5.05;;;1.80;;
55150;SDS011;41041;43.162;20.538;2023-08-30T10:29:52;4.40;;;1.80;;
55150;SDS011;41041;43.162;20.538;2023-08-30T10:32:28;5.50;;;1.45;;
55150;SDS011;41041;43.162;20.538;2023-08-30T10:34:53;4.45;;;1.55;;
55150;SDS011;41041;43.162;20.538;2023-08-30T10:37:26;3.95;;;1.60;;
55150;SDS011;41041;43.162;20.538;2023-08-30T10:39:52;6.45;;;1.50;;
55150;SDS011;41041;43.162;20.538;2023-08-30T10:47:36;3.80;;;1.55;;
55150;SDS011;41041;43.162;20.538;2023-08-30T10:52:58;4.45;;;1.60;;
55150;SDS011;41041;43.162;20.538;2023-08-30T10:55:24;6.50;;;1.60;;
55150;SDS011;41041;43.162;20.538;2023-08-30T11:00:40;3.70;;;1.42;;
55150;SDS011;41041;43.162;20.538;2023-08-30T11:03:10;3.65;;;1.55;;
55150;SDS011;41041;43.162;20.538;2023-08-30T11:05:36;5.50;;;1.60;;
55150;SDS011;41041;43.162;20.538;2023-08-30T11:08:05;3.35;;;1.38;;
55150;SDS011;41041;43.162;20.538;2023-08-30T11:10:37;3.22;;;1.55;;
55150;SDS011;41041;43.162;20.538;2023-08-30T11:13:05;5.40;;;1.55;;
55150;SDS011;41041;43.162;20.538;2023-08-30T11:15:42;6.35;;;1.70;;
55150;SDS011;41041;43.162;20.538;2023-08-30T11:18:08;5.05;;;1.77;;
55150;SDS011;41041;43.162;20.538;2023-08-30T11:20:34;3.90;;;1.50;;
55150;SDS011;41041;43.162;20.538;2023-08-30T11:23:00;3.70;;;1.50;;
55150;SDS011;41041;43.162;20.538;2023-08-30T11:25:27;3.05;;;1.50;;
55150;SDS011;41041;43.162;20.538;2023-08-30T11:28:01;4.30;;;1.60;;
55150;SDS011;41041;43.162;20.538;2023-08-30T11:30:30;4.50;;;1.55;;
55150;SDS011;41041;43.162;20.538;2023-08-30T11:32:57;3.95;;;1.40;;
55150;SDS011;41041;43.162;20.538;2023-08-30T11:35:23;3.00;;;1.42;;
55150;SDS011;41041;43.162;20.538;2023-08-30T11:37:49;5.63;;;1.60;;
55150;SDS011;41041;43.162;20.538;2023-08-30T11:40:15;2.88;;;1.50;;
55150;SDS011;41041;43.162;20.538;2023-08-30T11:42:41;2.67;;;1.38;;
55150;SDS011;41041;43.162;20.538;2023-08-30T11:45:08;4.32;;;1.75;;
55150;SDS011;41041;43.162;20.538;2023-08-30T11:47:35;3.92;;;1.55;;
55150;SDS011;41041;43.162;20.538;2023-08-30T11:50:01;5.55;;;1.40;;
55150;SDS011;41041;43.162;20.538;2023-08-30T11:52:27;6.78;;;1.77;;
55150;SDS011;41041;43.162;20.538;2023-08-30T11:54:53;7.07;;;1.83;;
55150;SDS011;41041;43.162;20.538;2023-08-30T11:57:20;3.67;;;1.77;;
55150;SDS011;41041;43.162;20.538;2023-08-30T11:59:46;3.53;;;1.55;;
55150;SDS011;41041;43.162;20.538;2023-08-30T12:04:49;5.80;;;1.55;;
55150;SDS011;41041;43.162;20.538;2023-08-30T12:07:22;5.93;;;1.35;;
55150;SDS011;41041;43.162;20.538;2023-08-30T12:12:18;5.82;;;1.40;;
55150;SDS011;41041;43.162;20.538;2023-08-30T12:14:44;5.13;;;1.30;;
55150;SDS011;41041;43.162;20.538;2023-08-30T12:17:20;3.50;;;1.67;;
55150;SDS011;41041;43.162;20.538;2023-08-30T12:19:45;5.82;;;1.60;;
55150;SDS011;41041;43.162;20.538;2023-08-30T12:22:11;5.30;;;1.45;;
55150;SDS011;41041;43.162;20.538;2023-08-30T12:24:43;5.80;;;1.40;;
55150;SDS011;41041;43.162;20.538;2023-08-30T12:27:10;4.70;;;1.48;;
55150;SDS011;41041;43.162;20.538;2023-08-30T12:29:35;5.15;;;1.50;;
55150;SDS011;41041;43.162;20.538;2023-08-30T12:32:01;3.30;;;1.48;;
55150;SDS011;41041;43.162;20.538;2023-08-30T12:34:28;10.05;;;1.95;;
55150;SDS011;41041;43.162;20.538;2023-08-30T12:36:53;6.38;;;1.48;;
55150;SDS011;41041;43.162;20.538;2023-08-30T12:39:20;6.38;;;1.40;;
55150;SDS011;41041;43.162;20.538;2023-08-30T12:41:45;8.13;;;1.63;;
55150;SDS011;41041;43.162;20.538;2023-08-30T12:44:12;6.07;;;1.40;;
55150;SDS011;41041;43.162;20.538;2023-08-30T12:46:38;7.85;;;1.50;;
55150;SDS011;41041;43.162;20.538;2023-08-30T12:49:03;8.00;;;1.70;;
55150;SDS011;41041;43.162;20.538;2023-08-30T12:51:31;4.63;;;1.20;;
55150;SDS011;41041;43.162;20.538;2023-08-30T12:53:56;5.88;;;1.40;;
55150;SDS011;41041;43.162;20.538;2023-08-30T12:56:22;4.25;;;1.10;;
55150;SDS011;41041;43.162;20.538;2023-08-30T12:58:48;5.50;;;1.10;;
55150;SDS011;41041;43.162;20.538;2023-08-30T13:01:14;4.35;;;1.20;;
55150;SDS011;41041;43.162;20.538;2023-08-30T13:03:39;3.75;;;1.13;;
55150;SDS011;41041;43.162;20.538;2023-08-30T13:06:05;5.53;;;1.30;;
55150;SDS011;41041;43.162;20.538;2023-08-30T13:08:31;3.33;;;1.20;;
55150;SDS011;41041;43.162;20.538;2023-08-30T13:10:59;4.63;;;1.10;;
55150;SDS011;41041;43.162;20.538;2023-08-30T13:13:25;4.13;;;1.10;;
55150;SDS011;41041;43.162;20.538;2023-08-30T13:15:51;6.45;;;1.33;;
55150;SDS011;41041;43.162;20.538;2023-08-30T13:18:18;2.72;;;1.00;;
55150;SDS011;41041;43.162;20.538;2023-08-30T13:20:44;4.60;;;1.10;;
55150;SDS011;41041;43.162;20.538;2023-08-30T13:23:10;3.53;;;1.60;;
55150;SDS011;41041;43.162;20.538;2023-08-30T13:25:40;6.07;;;1.40;;
55150;SDS011;41041;43.162;20.538;2023-08-30T13:28:06;3.63;;;1.23;;
55150;SDS011;41041;43.162;20.538;2023-08-30T13:30:32;3.70;;;1.45;;
55150;SDS011;41041;43.162;20.538;2023-08-30T13:35:29;2.88;;;0.82;;
55150;SDS011;41041;43.162;20.538;2023-08-30T13:37:55;3.03;;;1.17;;
55150;SDS011;41041;43.162;20.538;2023-08-30T13:40:34;2.70;;;1.00;;
55150;SDS011;41041;43.162;20.538;2023-08-30T13:42:59;2.83;;;1.17;;
55150;SDS011;41041;43.162;20.538;2023-08-30T13:45:25;5.47;;;1.38;;
55150;SDS011;41041;43.162;20.538;2023-08-30T13:47:51;3.35;;;0.95;;
55150;SDS011;41041;43.162;20.538;2023-08-30T13:52:57;4.78;;;1.05;;
55150;SDS011;41041;43.162;20.538;2023-08-30T13:55:23;4.53;;;1.20;;
55150;SDS011;41041;43.162;20.538;2023-08-30T13:57:49;6.47;;;1.27;;
55150;SDS011;41041;43.162;20.538;2023-08-30T14:00:15;3.10;;;1.10;;
55150;SDS011;41041;43.162;20.538;2023-08-30T14:02:41;14.43;;;2.03;;
55150;SDS011;41041;43.162;20.538;2023-08-30T14:05:07;12.52;;;1.70;;
55150;SDS011;41041;43.162;20.538;2023-08-30T14:07:33;13.27;;;1.80;;
55150;SDS011;41041;43.162;20.538;2023-08-30T14:09:59;8.75;;;1.80;;
55150;SDS011;41041;43.162;20.538;2023-08-30T14:12:25;10.68;;;1.80;;
55150;SDS011;41041;43.162;20.538;2023-08-30T14:14:52;10.63;;;1.80;;
55150;SDS011;41041;43.162;20.538;2023-08-30T14:17:19;7.38;;;1.40;;
55150;SDS011;41041;43.162;20.538;2023-08-30T14:19:45;7.88;;;2.03;;
55150;SDS011;41041;43.162;20.538;2023-08-30T14:22:11;7.80;;;1.73;;
55150;SDS011;41041;43.162;20.538;2023-08-30T14:24:37;8.02;;;1.35;;
55150;SDS011;41041;43.162;20.538;2023-08-30T14:27:03;5.47;;;1.65;;
55150;SDS011;41041;43.162;20.538;2023-08-30T14:29:29;4.30;;;1.45;;
55150;SDS011;41041;43.162;20.538;2023-08-30T14:31:54;5.05;;;1.80;;
55150;SDS011;41041;43.162;20.538;2023-08-30T14:34:20;3.97;;;1.58;;
55150;SDS011;41041;43.162;20.538;2023-08-30T14:36:46;3.30;;;1.27;;
55150;SDS011;41041;43.162;20.538;2023-08-30T14:39:13;5.10;;;1.30;;
55150;SDS011;41041;43.162;20.538;2023-08-30T14:41:39;4.38;;;1.88;;
55150;SDS011;41041;43.162;20.538;2023-08-30T14:44:05;4.45;;;1.45;;
55150;SDS011;41041;43.162;20.538;2023-08-30T14:46:32;5.32;;;1.58;;
55150;SDS011;41041;43.162;20.538;2023-08-30T14:48:58;6.93;;;1.48;;
55150;SDS011;41041;43.162;20.538;2023-08-30T14:51:24;6.55;;;1.25;;
55150;SDS011;41041;43.162;20.538;2023-08-30T14:53:50;10.35;;;1.60;;
55150;SDS011;41041;43.162;20.538;2023-08-30T14:56:16;6.85;;;1.70;;
55150;SDS011;41041;43.162;20.538;2023-08-30T14:58:43;5.38;;;1.38;;
55150;SDS011;41041;43.162;20.538;2023-08-30T15:01:14;4.82;;;1.13;;
55150;SDS011;41041;43.162;20.538;2023-08-30T15:03:40;3.80;;;1.30;;
55150;SDS011;41041;43.162;20.538;2023-08-30T15:06:06;3.55;;;1.20;;
55150;SDS011;41041;43.162;20.538;2023-08-30T15:08:32;5.40;;;1.50;;
55150;SDS011;41041;43.162;20.538;2023-08-30T15:10:57;5.47;;;1.20;;
55150;SDS011;41041;43.162;20.538;2023-08-30T15:13:23;5.10;;;1.55;;
55150;SDS011;41041;43.162;20.538;2023-08-30T15:15:49;13.48;;;8.75;;
55150;SDS011;41041;43.162;20.538;2023-08-30T15:18:22;9.65;;;1.90;;
55150;SDS011;41041;43.162;20.538;2023-08-30T15:20:50;3.33;;;1.30;;